sensor_id;sensor_type;location;lat;lon;timestamp;P1;durP1;ratioP1;P2;durP2;ratioP2
21519;SDS011;10921;53.614;9.882;2023-11-19T00:00:07;40.25;;;36.50;;
21519;SDS011;10921;53.614;9.882;2023-11-19T00:02:39;40.17;;;36.58;;
21519;SDS011;10921;53.614;9.882;2023-11-19T00:05:06;40.67;;;37.03;;
21519;SDS011;10921;53.614;9.882;2023-11-19T00:07:38;39.35;;;36.05;;
21519;SDS011;10921;53.614;9.882;2023-11-19T00:12:41;41.13;;;37.42;;
21519;SDS011;10921;53.614;9.882;2023-11-19T00:15:09;42.35;;;38.70;;
21519;SDS011;10921;53.614;9.882;2023-11-19T00:17:38;41.20;;;37.47;;
21519;SDS011;10921;53.614;9.882;2023-11-19T00:20:12;41.28;;;37.13;;
21519;SDS011;10921;53.614;9.882;2023-11-19T00:22:42;40.35;;;36.78;;
21519;SDS011;10921;53.614;9.882;2023-11-19T00:25:12;41.20;;;37.22;;
21519;SDS011;10921;53.614;9.882;2023-11-19T00:27:39;39.78;;;36.38;;
21519;SDS011;10921;53.614;9.882;2023-11-19T00:30:05;38.22;;;34.83;;
21519;SDS011;10921;53.614;9.882;2023-11-19T00:32:32;38.35;;;35.17;;
21519;SDS011;10921;53.614;9.882;2023-11-19T00:34:59;39.15;;;35.88;;
21519;SDS011;10921;53.614;9.882;2023-11-19T00:37:26;37.90;;;34.80;;
21519;SDS011;10921;53.614;9.882;2023-11-19T00:39:53;37.97;;;34.85;;
21519;SDS011;10921;53.614;9.882;2023-11-19T00:42:19;38.42;;;35.22;;
21519;SDS011;10921;53.614;9.882;2023-11-19T00:44:46;38.75;;;35.75;;
21519;SDS011;10921;53.614;9.882;2023-11-19T00:47:16;39.17;;;35.90;;
21519;SDS011;10921;53.614;9.882;2023-11-19T00:49:43;38.53;;;35.33;;
21519;SDS011;10921;53.614;9.882;2023-11-19T00:52:10;37.75;;;34.75;;
21519;SDS011;10921;53.614;9.882;2023-11-19T00:54:36;37.88;;;34.97;;
21519;SDS011;10921;53.614;9.882;2023-11-19T00:57:03;37.55;;;34.53;;
21519;SDS011;10921;53.614;9.882;2023-11-19T00:59:30;37.03;;;34.22;;
21519;SDS011;10921;53.614;9.882;2023-11-19T01:01:56;37.33;;;34.35;;
21519;SDS011;10921;53.614;9.882;2023-11-19T01:04:23;36.03;;;33.30;;
21519;SDS011;10921;53.614;9.882;2023-11-19T01:06:50;38.10;;;35.00;;
21519;SDS011;10921;53.614;9.882;2023-11-19T01:09:17;36.08;;;33.38;;
21519;SDS011;10921;53.614;9.882;2023-11-19T01:11:43;37.25;;;34.35;;
21519;SDS011;10921;53.614;9.882;2023-11-19T01:14:10;37.40;;;34.60;;
21519;SDS011;10921;53.614;9.882;2023-11-19T01:16:37;36.80;;;33.60;;
21519;SDS011;10921;53.614;9.882;2023-11-19T01:19:04;35.88;;;33.20;;
21519;SDS011;10921;53.614;9.882;2023-11-19T01:21:43;34.72;;;32.22;;
21519;SDS011;10921;53.614;9.882;2023-11-19T01:24:09;34.17;;;31.65;;
21519;SDS011;10921;53.614;9.882;2023-11-19T01:26:38;34.20;;;31.80;;
21519;SDS011;10921;53.614;9.882;2023-11-19T01:29:05;35.03;;;32.38;;
21519;SDS011;10921;53.614;9.882;2023-11-19T01:31:31;34.75;;;32.08;;
21519;SDS011;10921;53.614;9.882;2023-11-19T01:34:00;34.47;;;31.98;;
21519;SDS011;10921;53.614;9.882;2023-11-19T01:36:26;34.85;;;32.25;;
21519;SDS011;10921;53.614;9.882;2023-11-19T01:38:53;34.78;;;32.28;;
21519;SDS011;10921;53.614;9.882;2023-11-19T01:41:19;33.25;;;30.85;;
21519;SDS011;10921;53.614;9.882;2023-11-19T01:43:46;35.53;;;32.72;;
21519;SDS011;10921;53.614;9.882;2023-11-19T01:46:15;35.23;;;32.70;;
21519;SDS011;10921;53.614;9.882;2023-11-19T01:48:43;34.97;;;32.10;;
21519;SDS011;10921;53.614;9.882;2023-11-19T01:51:21;33.28;;;30.85;;
21519;SDS011;10921;53.614;9.882;2023-11-19T01:53:48;34.28;;;31.77;;
21519;SDS011;10921;53.614;9.882;2023-11-19T01:56:15;32.95;;;30.65;;
21519;SDS011;10921;53.614;9.882;2023-11-19T01:58:43;35.33;;;32.72;;
21519;SDS011;10921;53.614;9.882;2023-11-19T02:01:12;34.53;;;31.95;;
21519;SDS011;10921;53.614;9.882;2023-11-19T02:03:39;35.55;;;32.85;;
21519;SDS011;10921;53.614;9.882;2023-11-19T02:06:06;33.50;;;31.20;;
21519;SDS011;10921;53.614;9.882;2023-11-19T02:08:33;34.40;;;32.00;;
21519;SDS011;10921;53.614;9.882;2023-11-19T02:11:00;35.22;;;32.55;;
21519;SDS011;10921;53.614;9.882;2023-11-19T02:13:26;35.45;;;32.88;;
21519;SDS011;10921;53.614;9.882;2023-11-19T02:15:54;34.55;;;32.13;;
21519;SDS011;10921;53.614;9.882;2023-11-19T02:18:22;34.63;;;32.25;;
21519;SDS011;10921;53.614;9.882;2023-11-19T02:20:50;32.10;;;29.80;;
21519;SDS011;10921;53.614;9.882;2023-11-19T02:23:17;32.92;;;30.73;;
21519;SDS011;10921;53.614;9.882;2023-11-19T02:25:47;32.83;;;30.65;;
21519;SDS011;10921;53.614;9.882;2023-11-19T02:28:24;33.10;;;30.83;;
21519;SDS011;10921;53.614;9.882;2023-11-19T02:30:51;32.53;;;30.33;;
21519;SDS011;10921;53.614;9.882;2023-11-19T02:33:19;33.25;;;30.83;;
21519;SDS011;10921;53.614;9.882;2023-11-19T02:35:45;32.58;;;30.38;;
21519;SDS011;10921;53.614;9.882;2023-11-19T02:38:12;32.55;;;30.35;;
21519;SDS011;10921;53.614;9.882;2023-11-19T02:40:40;32.83;;;30.58;;
21519;SDS011;10921;53.614;9.882;2023-11-19T02:43:06;32.75;;;30.55;;
21519;SDS011;10921;53.614;9.882;2023-11-19T02:45:34;32.53;;;30.42;;
21519;SDS011;10921;53.614;9.882;2023-11-19T02:48:02;32.03;;;29.92;;
21519;SDS011;10921;53.614;9.882;2023-11-19T02:50:28;32.05;;;29.85;;
21519;SDS011;10921;53.614;9.882;2023-11-19T02:52:55;32.45;;;30.27;;
21519;SDS011;10921;53.614;9.882;2023-11-19T02:55:23;33.00;;;30.80;;
21519;SDS011;10921;53.614;9.882;2023-11-19T02:57:51;34.42;;;32.03;;
21519;SDS011;10921;53.614;9.882;2023-11-19T03:00:20;33.58;;;31.27;;
21519;SDS011;10921;53.614;9.882;2023-11-19T03:02:51;34.50;;;32.08;;
21519;SDS011;10921;53.614;9.882;2023-11-19T03:05:44;34.75;;;32.35;;
21519;SDS011;10921;53.614;9.882;2023-11-19T03:08:11;33.72;;;31.25;;
21519;SDS011;10921;53.614;9.882;2023-11-19T03:10:48;32.63;;;30.42;;
21519;SDS011;10921;53.614;9.882;2023-11-19T03:13:15;33.55;;;31.15;;
21519;SDS011;10921;53.614;9.882;2023-11-19T03:15:44;33.60;;;31.30;;
21519;SDS011;10921;53.614;9.882;2023-11-19T03:18:11;34.08;;;31.58;;
21519;SDS011;10921;53.614;9.882;2023-11-19T03:20:37;33.53;;;31.23;;
21519;SDS011;10921;53.614;9.882;2023-11-19T03:23:04;34.53;;;32.08;;
21519;SDS011;10921;53.614;9.882;2023-11-19T03:25:32;34.45;;;31.95;;
21519;SDS011;10921;53.614;9.882;2023-11-19T03:28:03;34.78;;;32.20;;
21519;SDS011;10921;53.614;9.882;2023-11-19T03:30:30;33.28;;;31.02;;
21519;SDS011;10921;53.614;9.882;2023-11-19T03:33:01;34.38;;;32.08;;
21519;SDS011;10921;53.614;9.882;2023-11-19T03:35:28;34.88;;;32.28;;
21519;SDS011;10921;53.614;9.882;2023-11-19T03:37:54;34.80;;;32.40;;
21519;SDS011;10921;53.614;9.882;2023-11-19T03:40:22;33.33;;;31.00;;
21519;SDS011;10921;53.614;9.882;2023-11-19T03:42:48;34.95;;;32.55;;
21519;SDS011;10921;53.614;9.882;2023-11-19T03:45:15;35.55;;;32.47;;
21519;SDS011;10921;53.614;9.882;2023-11-19T03:47:42;35.00;;;32.55;;
21519;SDS011;10921;53.614;9.882;2023-11-19T03:50:08;34.60;;;32.10;;
21519;SDS011;10921;53.614;9.882;2023-11-19T03:52:35;34.53;;;32.13;;
21519;SDS011;10921;53.614;9.882;2023-11-19T03:55:05;34.97;;;32.45;;
21519;SDS011;10921;53.614;9.882;2023-11-19T03:57:32;35.63;;;32.97;;
21519;SDS011;10921;53.614;9.882;2023-11-19T03:59:58;35.58;;;32.88;;
21519;SDS011;10921;53.614;9.882;2023-11-19T04:02:25;35.85;;;33.03;;
21519;SDS011;10921;53.614;9.882;2023-11-19T04:04:54;37.15;;;34.15;;
21519;SDS011;10921;53.614;9.882;2023-11-19T04:07:21;37.58;;;34.75;;
21519;SDS011;10921;53.614;9.882;2023-11-19T04:09:48;37.05;;;34.25;;
21519;SDS011;10921;53.614;9.882;2023-11-19T04:12:14;38.60;;;35.40;;
21519;SDS011;10921;53.614;9.882;2023-11-19T04:14:41;38.92;;;35.63;;
21519;SDS011;10921;53.614;9.882;2023-11-19T04:17:08;38.30;;;35.08;;
21519;SDS011;10921;53.614;9.882;2023-11-19T04:19:34;38.53;;;35.35;;
21519;SDS011;10921;53.614;9.882;2023-11-19T04:22:01;39.28;;;35.92;;
21519;SDS011;10921;53.614;9.882;2023-11-19T04:24:28;39.88;;;36.28;;
21519;SDS011;10921;53.614;9.882;2023-11-19T04:26:54;40.97;;;37.30;;
21519;SDS011;10921;53.614;9.882;2023-11-19T04:29:21;40.22;;;36.53;;
21519;SDS011;10921;53.614;9.882;2023-11-19T04:31:47;41.75;;;37.72;;
21519;SDS011;10921;53.614;9.882;2023-11-19T04:34:14;41.42;;;37.88;;
21519;SDS011;10921;53.614;9.882;2023-11-19T04:36:41;42.97;;;38.97;;
21519;SDS011;10921;53.614;9.882;2023-11-19T04:39:08;46.15;;;40.85;;
21519;SDS011;10921;53.614;9.882;2023-11-19T04:41:35;43.58;;;39.65;;
21519;SDS011;10921;53.614;9.882;2023-11-19T04:44:02;44.60;;;39.15;;
21519;SDS011;10921;53.614;9.882;2023-11-19T04:46:28;45.72;;;41.20;;
21519;SDS011;10921;53.614;9.882;2023-11-19T04:48:55;46.42;;;41.50;;
21519;SDS011;10921;53.614;9.882;2023-11-19T04:51:22;49.17;;;44.00;;
21519;SDS011;10921;53.614;9.882;2023-11-19T04:53:48;49.45;;;44.28;;
21519;SDS011;10921;53.614;9.882;2023-11-19T04:56:15;48.78;;;43.67;;
21519;SDS011;10921;53.614;9.882;2023-11-19T05:01:15;51.45;;;45.25;;
21519;SDS011;10921;53.614;9.882;2023-11-19T05:03:44;51.45;;;45.85;;
21519;SDS011;10921;53.614;9.882;2023-11-19T05:06:12;56.33;;;47.30;;
21519;SDS011;10921;53.614;9.882;2023-11-19T05:08:38;63.20;;;52.05;;
21519;SDS011;10921;53.614;9.882;2023-11-19T05:11:05;72.55;;;53.30;;
21519;SDS011;10921;53.614;9.882;2023-11-19T05:13:32;60.72;;;50.22;;
21519;SDS011;10921;53.614;9.882;2023-11-19T05:15:58;66.55;;;50.92;;
21519;SDS011;10921;53.614;9.882;2023-11-19T05:18:25;72.05;;;53.20;;
21519;SDS011;10921;53.614;9.882;2023-11-19T05:20:51;76.32;;;52.90;;
21519;SDS011;10921;53.614;9.882;2023-11-19T05:23:18;75.60;;;53.85;;
21519;SDS011;10921;53.614;9.882;2023-11-19T05:25:46;73.80;;;54.75;;
21519;SDS011;10921;53.614;9.882;2023-11-19T05:28:13;82.55;;;55.70;;
21519;SDS011;10921;53.614;9.882;2023-11-19T05:30:40;81.88;;;56.88;;
21519;SDS011;10921;53.614;9.882;2023-11-19T05:33:07;80.00;;;58.10;;
21519;SDS011;10921;53.614;9.882;2023-11-19T05:35:34;79.20;;;57.85;;
21519;SDS011;10921;53.614;9.882;2023-11-19T05:38:00;89.35;;;59.30;;
21519;SDS011;10921;53.614;9.882;2023-11-19T05:40:28;77.28;;;57.67;;
21519;SDS011;10921;53.614;9.882;2023-11-19T05:42:55;86.95;;;58.63;;
21519;SDS011;10921;53.614;9.882;2023-11-19T05:45:21;82.00;;;56.50;;
21519;SDS011;10921;53.614;9.882;2023-11-19T05:47:49;71.72;;;55.55;;
21519;SDS011;10921;53.614;9.882;2023-11-19T05:50:15;89.30;;;58.67;;
21519;SDS011;10921;53.614;9.882;2023-11-19T05:52:42;94.13;;;57.72;;
21519;SDS011;10921;53.614;9.882;2023-11-19T05:55:08;87.47;;;59.10;;
21519;SDS011;10921;53.614;9.882;2023-11-19T05:57:37;76.28;;;55.92;;
21519;SDS011;10921;53.614;9.882;2023-11-19T06:00:12;91.13;;;56.95;;
21519;SDS011;10921;53.614;9.882;2023-11-19T06:02:39;80.43;;;56.13;;
21519;SDS011;10921;53.614;9.882;2023-11-19T06:05:06;90.15;;;56.65;;
21519;SDS011;10921;53.614;9.882;2023-11-19T06:07:33;85.47;;;55.63;;
21519;SDS011;10921;53.614;9.882;2023-11-19T06:09:59;84.70;;;54.78;;
21519;SDS011;10921;53.614;9.882;2023-11-19T06:12:26;89.22;;;55.42;;
21519;SDS011;10921;53.614;9.882;2023-11-19T06:14:53;83.35;;;52.70;;
21519;SDS011;10921;53.614;9.882;2023-11-19T06:17:20;81.93;;;52.47;;
21519;SDS011;10921;53.614;9.882;2023-11-19T06:19:46;83.60;;;51.60;;
21519;SDS011;10921;53.614;9.882;2023-11-19T06:22:13;87.50;;;51.75;;
21519;SDS011;10921;53.614;9.882;2023-11-19T06:24:40;88.70;;;49.53;;
21519;SDS011;10921;53.614;9.882;2023-11-19T06:27:07;85.47;;;47.42;;
21519;SDS011;10921;53.614;9.882;2023-11-19T06:29:33;75.22;;;46.63;;
21519;SDS011;10921;53.614;9.882;2023-11-19T06:32:00;84.07;;;46.22;;
21519;SDS011;10921;53.614;9.882;2023-11-19T06:34:41;77.82;;;45.95;;
21519;SDS011;10921;53.614;9.882;2023-11-19T06:37:07;81.22;;;45.28;;
21519;SDS011;10921;53.614;9.882;2023-11-19T06:39:35;87.32;;;45.28;;
21519;SDS011;10921;53.614;9.882;2023-11-19T06:42:02;98.15;;;44.42;;
21519;SDS011;10921;53.614;9.882;2023-11-19T06:44:28;92.63;;;43.47;;
21519;SDS011;10921;53.614;9.882;2023-11-19T06:46:55;78.38;;;40.33;;
21519;SDS011;10921;53.614;9.882;2023-11-19T06:49:22;83.22;;;40.53;;
21519;SDS011;10921;53.614;9.882;2023-11-19T06:51:52;77.43;;;39.33;;
21519;SDS011;10921;53.614;9.882;2023-11-19T06:54:18;81.03;;;40.53;;
21519;SDS011;10921;53.614;9.882;2023-11-19T06:56:45;70.38;;;40.40;;
21519;SDS011;10921;53.614;9.882;2023-11-19T06:59:13;87.30;;;39.25;;
21519;SDS011;10921;53.614;9.882;2023-11-19T07:01:40;79.18;;;40.40;;
21519;SDS011;10921;53.614;9.882;2023-11-19T07:04:13;71.72;;;40.58;;
21519;SDS011;10921;53.614;9.882;2023-11-19T07:06:39;88.60;;;38.60;;
21519;SDS011;10921;53.614;9.882;2023-11-19T07:09:09;75.43;;;37.55;;
21519;SDS011;10921;53.614;9.882;2023-11-19T07:11:37;71.70;;;37.67;;
21519;SDS011;10921;53.614;9.882;2023-11-19T07:14:05;75.88;;;36.72;;
21519;SDS011;10921;53.614;9.882;2023-11-19T07:16:33;70.97;;;36.95;;
21519;SDS011;10921;53.614;9.882;2023-11-19T07:19:01;66.45;;;34.45;;
21519;SDS011;10921;53.614;9.882;2023-11-19T07:21:28;67.05;;;35.60;;
21519;SDS011;10921;53.614;9.882;2023-11-19T07:23:54;70.50;;;34.42;;
21519;SDS011;10921;53.614;9.882;2023-11-19T07:26:21;69.00;;;33.13;;
21519;SDS011;10921;53.614;9.882;2023-11-19T07:28:49;69.57;;;35.38;;
21519;SDS011;10921;53.614;9.882;2023-11-19T07:31:16;59.72;;;33.03;;
21519;SDS011;10921;53.614;9.882;2023-11-19T07:33:45;78.80;;;34.72;;
21519;SDS011;10921;53.614;9.882;2023-11-19T07:36:13;72.03;;;32.00;;
21519;SDS011;10921;53.614;9.882;2023-11-19T07:38:40;66.35;;;32.22;;
21519;SDS011;10921;53.614;9.882;2023-11-19T07:41:07;73.57;;;32.80;;
21519;SDS011;10921;53.614;9.882;2023-11-19T07:43:36;75.80;;;33.10;;
21519;SDS011;10921;53.614;9.882;2023-11-19T07:46:02;80.53;;;32.05;;
21519;SDS011;10921;53.614;9.882;2023-11-19T07:48:30;64.65;;;31.70;;
21519;SDS011;10921;53.614;9.882;2023-11-19T07:50:57;71.30;;;30.25;;
21519;SDS011;10921;53.614;9.882;2023-11-19T07:53:24;70.38;;;30.75;;
21519;SDS011;10921;53.614;9.882;2023-11-19T07:55:50;67.40;;;29.60;;
21519;SDS011;10921;53.614;9.882;2023-11-19T07:58:17;72.72;;;30.50;;
21519;SDS011;10921;53.614;9.882;2023-11-19T08:00:44;73.18;;;30.80;;
21519;SDS011;10921;53.614;9.882;2023-11-19T08:03:10;71.85;;;31.35;;
21519;SDS011;10921;53.614;9.882;2023-11-19T08:05:37;73.25;;;29.10;;
21519;SDS011;10921;53.614;9.882;2023-11-19T08:08:04;68.53;;;30.52;;
21519;SDS011;10921;53.614;9.882;2023-11-19T08:10:30;70.70;;;28.85;;
21519;SDS011;10921;53.614;9.882;2023-11-19T08:12:59;81.90;;;30.35;;
21519;SDS011;10921;53.614;9.882;2023-11-19T08:15:25;78.82;;;29.98;;
21519;SDS011;10921;53.614;9.882;2023-11-19T08:17:55;73.80;;;29.30;;
21519;SDS011;10921;53.614;9.882;2023-11-19T08:20:21;79.95;;;28.40;;
21519;SDS011;10921;53.614;9.882;2023-11-19T08:22:48;66.90;;;28.33;;
21519;SDS011;10921;53.614;9.882;2023-11-19T08:25:15;71.85;;;27.00;;
21519;SDS011;10921;53.614;9.882;2023-11-19T08:27:41;74.85;;;27.85;;
21519;SDS011;10921;53.614;9.882;2023-11-19T08:30:09;72.72;;;26.00;;
21519;SDS011;10921;53.614;9.882;2023-11-19T08:32:36;64.07;;;25.02;;
21519;SDS011;10921;53.614;9.882;2023-11-19T08:35:03;74.32;;;24.33;;
21519;SDS011;10921;53.614;9.882;2023-11-19T08:37:30;65.22;;;24.15;;
21519;SDS011;10921;53.614;9.882;2023-11-19T08:39:57;68.28;;;21.73;;
21519;SDS011;10921;53.614;9.882;2023-11-19T08:42:23;50.92;;;21.38;;
21519;SDS011;10921;53.614;9.882;2023-11-19T08:44:50;56.17;;;21.80;;
21519;SDS011;10921;53.614;9.882;2023-11-19T08:47:20;62.78;;;20.65;;
21519;SDS011;10921;53.614;9.882;2023-11-19T08:49:51;57.55;;;19.10;;
21519;SDS011;10921;53.614;9.882;2023-11-19T08:52:24;57.72;;;19.38;;
21519;SDS011;10921;53.614;9.882;2023-11-19T08:54:50;59.88;;;18.92;;
21519;SDS011;10921;53.614;9.882;2023-11-19T08:57:17;59.90;;;18.15;;
21519;SDS011;10921;53.614;9.882;2023-11-19T08:59:44;61.08;;;17.45;;
21519;SDS011;10921;53.614;9.882;2023-11-19T09:02:12;58.85;;;18.75;;
21519;SDS011;10921;53.614;9.882;2023-11-19T09:04:39;56.25;;;16.77;;
21519;SDS011;10921;53.614;9.882;2023-11-19T09:07:05;67.45;;;18.10;;
21519;SDS011;10921;53.614;9.882;2023-11-19T09:09:32;72.18;;;18.17;;
21519;SDS011;10921;53.614;9.882;2023-11-19T09:12:02;56.22;;;17.02;;
21519;SDS011;10921;53.614;9.882;2023-11-19T09:14:32;55.42;;;15.52;;
21519;SDS011;10921;53.614;9.882;2023-11-19T09:16:59;55.58;;;16.02;;
21519;SDS011;10921;53.614;9.882;2023-11-19T09:19:26;55.58;;;15.18;;
21519;SDS011;10921;53.614;9.882;2023-11-19T09:21:53;65.60;;;16.95;;
21519;SDS011;10921;53.614;9.882;2023-11-19T09:24:20;53.03;;;15.00;;
21519;SDS011;10921;53.614;9.882;2023-11-19T09:26:49;73.83;;;16.40;;
21519;SDS011;10921;53.614;9.882;2023-11-19T09:29:15;66.13;;;15.93;;
21519;SDS011;10921;53.614;9.882;2023-11-19T09:31:43;62.20;;;15.60;;
21519;SDS011;10921;53.614;9.882;2023-11-19T09:34:09;64.18;;;16.00;;
21519;SDS011;10921;53.614;9.882;2023-11-19T09:36:36;56.10;;;16.30;;
21519;SDS011;10921;53.614;9.882;2023-11-19T09:39:03;72.00;;;19.02;;
21519;SDS011;10921;53.614;9.882;2023-11-19T09:41:30;70.05;;;18.65;;
21519;SDS011;10921;53.614;9.882;2023-11-19T09:43:57;59.78;;;18.35;;
21519;SDS011;10921;53.614;9.882;2023-11-19T09:46:24;67.60;;;18.95;;
21519;SDS011;10921;53.614;9.882;2023-11-19T09:48:52;65.22;;;17.52;;
21519;SDS011;10921;53.614;9.882;2023-11-19T09:51:21;67.65;;;19.98;;
21519;SDS011;10921;53.614;9.882;2023-11-19T09:53:48;65.70;;;19.27;;
21519;SDS011;10921;53.614;9.882;2023-11-19T09:56:16;55.30;;;18.33;;
21519;SDS011;10921;53.614;9.882;2023-11-19T09:58:46;66.00;;;19.00;;
21519;SDS011;10921;53.614;9.882;2023-11-19T10:01:13;70.93;;;18.70;;
21519;SDS011;10921;53.614;9.882;2023-11-19T10:03:43;64.70;;;18.73;;
21519;SDS011;10921;53.614;9.882;2023-11-19T10:08:41;60.75;;;18.23;;
21519;SDS011;10921;53.614;9.882;2023-11-19T10:11:09;62.38;;;19.30;;
21519;SDS011;10921;53.614;9.882;2023-11-19T10:13:38;60.42;;;18.45;;
21519;SDS011;10921;53.614;9.882;2023-11-19T10:18:38;56.65;;;17.63;;
21519;SDS011;10921;53.614;9.882;2023-11-19T10:21:14;72.10;;;19.55;;
21519;SDS011;10921;53.614;9.882;2023-11-19T10:29:03;58.22;;;19.15;;
21519;SDS011;10921;53.614;9.882;2023-11-19T10:31:30;60.65;;;18.40;;
21519;SDS011;10921;53.614;9.882;2023-11-19T10:33:56;74.03;;;19.27;;
21519;SDS011;10921;53.614;9.882;2023-11-19T10:36:26;67.85;;;20.25;;
21519;SDS011;10921;53.614;9.882;2023-11-19T10:41:32;57.47;;;19.33;;
21519;SDS011;10921;53.614;9.882;2023-11-19T10:43:59;53.63;;;19.67;;
21519;SDS011;10921;53.614;9.882;2023-11-19T10:46:41;64.32;;;22.20;;
21519;SDS011;10921;53.614;9.882;2023-11-19T10:49:09;63.65;;;23.35;;
21519;SDS011;10921;53.614;9.882;2023-11-19T10:51:37;70.60;;;25.00;;
21519;SDS011;10921;53.614;9.882;2023-11-19T10:54:11;74.55;;;23.95;;
21519;SDS011;10921;53.614;9.882;2023-11-19T10:56:41;59.42;;;22.70;;
21519;SDS011;10921;53.614;9.882;2023-11-19T10:59:11;75.57;;;23.73;;
21519;SDS011;10921;53.614;9.882;2023-11-19T11:01:45;57.90;;;21.40;;
21519;SDS011;10921;53.614;9.882;2023-11-19T11:04:19;66.30;;;21.23;;
21519;SDS011;10921;53.614;9.882;2023-11-19T11:06:54;62.92;;;22.27;;
21519;SDS011;10921;53.614;9.882;2023-11-19T11:09:22;65.50;;;22.37;;
21519;SDS011;10921;53.614;9.882;2023-11-19T11:11:49;67.40;;;22.20;;
21519;SDS011;10921;53.614;9.882;2023-11-19T11:14:16;73.18;;;21.25;;
21519;SDS011;10921;53.614;9.882;2023-11-19T11:16:46;65.75;;;20.10;;
21519;SDS011;10921;53.614;9.882;2023-11-19T11:19:17;65.40;;;21.92;;
21519;SDS011;10921;53.614;9.882;2023-11-19T11:21:46;57.42;;;20.42;;
21519;SDS011;10921;53.614;9.882;2023-11-19T11:24:27;63.90;;;19.95;;
21519;SDS011;10921;53.614;9.882;2023-11-19T11:35:53;70.07;;;19.38;;
21519;SDS011;10921;53.614;9.882;2023-11-19T11:38:31;70.47;;;20.08;;
21519;SDS011;10921;53.614;9.882;2023-11-19T11:43:58;59.92;;;23.90;;
21519;SDS011;10921;53.614;9.882;2023-11-19T11:49:04;70.47;;;30.60;;
21519;SDS011;10921;53.614;9.882;2023-11-19T11:54:11;78.47;;;32.47;;
21519;SDS011;10921;53.614;9.882;2023-11-19T11:57:11;81.38;;;32.55;;
21519;SDS011;10921;53.614;9.882;2023-11-19T12:02:17;73.07;;;31.30;;
21519;SDS011;10921;53.614;9.882;2023-11-19T12:04:49;76.22;;;31.23;;
21519;SDS011;10921;53.614;9.882;2023-11-19T12:20:00;73.65;;;29.45;;
21519;SDS011;10921;53.614;9.882;2023-11-19T12:22:38;70.88;;;29.40;;
21519;SDS011;10921;53.614;9.882;2023-11-19T12:25:05;79.53;;;28.77;;
21519;SDS011;10921;53.614;9.882;2023-11-19T12:27:33;67.13;;;27.40;;
21519;SDS011;10921;53.614;9.882;2023-11-19T12:30:02;77.10;;;29.03;;
21519;SDS011;10921;53.614;9.882;2023-11-19T12:32:42;71.07;;;26.73;;
21519;SDS011;10921;53.614;9.882;2023-11-19T12:35:10;57.58;;;25.42;;
21519;SDS011;10921;53.614;9.882;2023-11-19T12:37:47;63.45;;;24.83;;
21519;SDS011;10921;53.614;9.882;2023-11-19T12:40:19;64.50;;;25.13;;
21519;SDS011;10921;53.614;9.882;2023-11-19T12:42:47;55.20;;;24.17;;
21519;SDS011;10921;53.614;9.882;2023-11-19T12:45:14;63.53;;;23.65;;
21519;SDS011;10921;53.614;9.882;2023-11-19T12:47:43;63.50;;;23.38;;
21519;SDS011;10921;53.614;9.882;2023-11-19T12:50:10;56.75;;;22.73;;
21519;SDS011;10921;53.614;9.882;2023-11-19T12:52:40;56.65;;;22.30;;
21519;SDS011;10921;53.614;9.882;2023-11-19T12:55:25;60.25;;;22.83;;
21519;SDS011;10921;53.614;9.882;2023-11-19T13:00:27;61.00;;;22.33;;
21519;SDS011;10921;53.614;9.882;2023-11-19T13:02:55;56.22;;;21.45;;
21519;SDS011;10921;53.614;9.882;2023-11-19T13:08:03;52.40;;;20.52;;
21519;SDS011;10921;53.614;9.882;2023-11-19T13:10:31;59.08;;;20.75;;
21519;SDS011;10921;53.614;9.882;2023-11-19T13:13:06;72.43;;;21.88;;
21519;SDS011;10921;53.614;9.882;2023-11-19T13:15:37;70.60;;;22.80;;
21519;SDS011;10921;53.614;9.882;2023-11-19T13:18:03;72.97;;;24.35;;
21519;SDS011;10921;53.614;9.882;2023-11-19T13:20:30;54.60;;;20.20;;
21519;SDS011;10921;53.614;9.882;2023-11-19T13:25:26;47.35;;;19.70;;
21519;SDS011;10921;53.614;9.882;2023-11-19T13:27:53;65.40;;;21.27;;
21519;SDS011;10921;53.614;9.882;2023-11-19T13:30:21;64.15;;;20.30;;
21519;SDS011;10921;53.614;9.882;2023-11-19T13:32:51;59.42;;;20.80;;
21519;SDS011;10921;53.614;9.882;2023-11-19T13:35:18;72.35;;;21.92;;
21519;SDS011;10921;53.614;9.882;2023-11-19T13:37:45;68.32;;;21.55;;
21519;SDS011;10921;53.614;9.882;2023-11-19T13:40:12;60.13;;;20.20;;
21519;SDS011;10921;53.614;9.882;2023-11-19T13:42:43;56.45;;;19.33;;
21519;SDS011;10921;53.614;9.882;2023-11-19T13:45:11;65.03;;;19.35;;
21519;SDS011;10921;53.614;9.882;2023-11-19T13:47:39;66.63;;;20.02;;
21519;SDS011;10921;53.614;9.882;2023-11-19T13:50:13;43.58;;;18.55;;
21519;SDS011;10921;53.614;9.882;2023-11-19T13:52:41;59.85;;;21.13;;
21519;SDS011;10921;53.614;9.882;2023-11-19T13:57:40;59.72;;;20.02;;
21519;SDS011;10921;53.614;9.882;2023-11-19T14:00:09;64.80;;;19.05;;
21519;SDS011;10921;53.614;9.882;2023-11-19T14:02:41;59.72;;;19.58;;
21519;SDS011;10921;53.614;9.882;2023-11-19T14:05:08;49.15;;;18.92;;
21519;SDS011;10921;53.614;9.882;2023-11-19T14:07:37;54.10;;;18.85;;
21519;SDS011;10921;53.614;9.882;2023-11-19T14:10:04;56.85;;;18.92;;
21519;SDS011;10921;53.614;9.882;2023-11-19T14:12:32;52.92;;;17.92;;
21519;SDS011;10921;53.614;9.882;2023-11-19T14:14:59;58.25;;;17.60;;
21519;SDS011;10921;53.614;9.882;2023-11-19T14:17:26;62.55;;;18.30;;
21519;SDS011;10921;53.614;9.882;2023-11-19T14:19:53;67.60;;;19.23;;
21519;SDS011;10921;53.614;9.882;2023-11-19T14:22:19;61.25;;;18.63;;
21519;SDS011;10921;53.614;9.882;2023-11-19T14:24:46;56.63;;;17.95;;
21519;SDS011;10921;53.614;9.882;2023-11-19T14:27:12;60.28;;;19.50;;
21519;SDS011;10921;53.614;9.882;2023-11-19T14:29:39;52.78;;;18.42;;
21519;SDS011;10921;53.614;9.882;2023-11-19T14:32:06;59.35;;;18.98;;
21519;SDS011;10921;53.614;9.882;2023-11-19T14:34:33;70.93;;;20.42;;
21519;SDS011;10921;53.614;9.882;2023-11-19T14:36:59;57.60;;;21.67;;
21519;SDS011;10921;53.614;9.882;2023-11-19T14:39:27;54.45;;;31.88;;
21519;SDS011;10921;53.614;9.882;2023-11-19T14:41:55;59.15;;;32.40;;
21519;SDS011;10921;53.614;9.882;2023-11-19T14:44:24;53.92;;;29.42;;
21519;SDS011;10921;53.614;9.882;2023-11-19T14:46:51;34.67;;;28.65;;
21519;SDS011;10921;53.614;9.882;2023-11-19T14:49:17;32.63;;;28.40;;
21519;SDS011;10921;53.614;9.882;2023-11-19T14:51:44;31.15;;;27.98;;
21519;SDS011;10921;53.614;9.882;2023-11-19T14:54:13;32.38;;;28.90;;
21519;SDS011;10921;53.614;9.882;2023-11-19T14:56:42;33.05;;;28.33;;
21519;SDS011;10921;53.614;9.882;2023-11-19T14:59:08;41.10;;;29.35;;
21519;SDS011;10921;53.614;9.882;2023-11-19T15:01:35;35.22;;;27.88;;
21519;SDS011;10921;53.614;9.882;2023-11-19T15:04:02;32.88;;;29.33;;
21519;SDS011;10921;53.614;9.882;2023-11-19T15:06:32;32.63;;;29.17;;
21519;SDS011;10921;53.614;9.882;2023-11-19T15:09:00;33.13;;;28.00;;
21519;SDS011;10921;53.614;9.882;2023-11-19T15:11:27;31.95;;;28.80;;
21519;SDS011;10921;53.614;9.882;2023-11-19T15:13:53;31.27;;;28.35;;
21519;SDS011;10921;53.614;9.882;2023-11-19T15:16:20;32.75;;;29.25;;
21519;SDS011;10921;53.614;9.882;2023-11-19T15:18:52;34.03;;;30.63;;
21519;SDS011;10921;53.614;9.882;2023-11-19T15:21:18;30.83;;;27.50;;
21519;SDS011;10921;53.614;9.882;2023-11-19T15:23:45;32.10;;;28.65;;
21519;SDS011;10921;53.614;9.882;2023-11-19T15:26:12;31.83;;;28.63;;